Time;durP1;ratioP1;P1;durP2;ratioP2;P2;SDS_P1;SDS_P2;PMS_P1;PMS_P2;Temp;Humidity;BMP_temperature;BMP_pressure;BME280_temperature;BME280_humidity;BME280_pressure;Samples;Min_cycle;Max_cycle;Signal;HPM_P1;HPM_P2
2022/08/28 00:00:29;;;;;;;14.73;3.53;;;13.60;99.90;;;;;;4883947;28;199145;-87
2022/08/28 00:03:27;;;;;;;14.27;3.90;;;13.50;99.90;;;;;;4882155;28;283501;-87
2022/08/28 00:06:11;;;;;;;13.38;3.63;;;13.50;99.90;;;;;;4941881;29;20066;-88
2022/08/28 00:08:49;;;;;;;12.45;3.17;;;13.50;99.90;;;;;;4894358;28;266862;-87
2022/08/28 00:11:26;;;;;;;11.27;3.30;;;13.50;99.90;;;;;;4932481;28;20066;-88
2022/08/28 00:14:09;;;;;;;11.35;3.55;;;13.40;99.90;;;;;;4879104;28;205194;-87
2022/08/28 00:16:57;;;;;;;15.65;3.80;;;13.50;99.90;;;;;;4925158;29;20055;-88
2022/08/28 00:19:29;;;;;;;13.23;3.75;;;13.40;99.90;;;;;;4920073;28;215591;-88
2022/08/28 00:22:00;;;;;;;10.25;3.33;;;13.40;99.90;;;;;;4929778;29;20051;-86
2022/08/28 00:24:29;;;;;;;12.02;3.53;;;13.40;99.90;;;;;;4878843;28;256426;-86
2022/08/28 00:29:49;;;;;;;15.88;3.92;;;13.30;99.90;;;;;;4907012;28;207000;-88
2022/08/28 00:32:22;;;;;;;17.02;4.03;;;13.30;99.90;;;;;;4946312;28;20066;-88
2022/08/28 00:35:03;;;;;;;13.38;3.65;;;13.30;99.90;;;;;;4888071;28;232178;-88
2022/08/28 00:37:35;;;;;;;11.98;3.38;;;13.30;99.90;;;;;;4928574;28;20046;-89
2022/08/28 00:40:02;;;;;;;14.73;3.78;;;13.30;99.90;;;;;;4884035;29;208619;-87
2022/08/28 00:42:44;;;;;;;14.20;3.70;;;13.20;99.90;;;;;;4922936;28;20047;-88
2022/08/28 00:45:26;;;;;;;13.07;3.42;;;13.20;99.90;;;;;;4881232;28;180781;-88
2022/08/28 00:47:56;;;;;;;13.05;3.38;;;13.20;99.90;;;;;;4894562;28;204022;-89
2022/08/28 00:53:38;;;;;;;10.63;3.50;;;13.10;99.90;;;;;;4886011;28;190643;-87
2022/08/28 00:56:19;;;;;;;10.68;3.40;;;13.10;99.90;;;;;;4901152;29;20056;-87
2022/08/28 00:59:06;;;;;;;12.30;3.38;;;13.10;99.90;;;;;;4857039;29;197893;-86
2022/08/28 01:01:40;;;;;;;14.50;3.22;;;13.10;99.90;;;;;;4895323;29;20060;-87
2022/08/28 01:04:17;;;;;;;16.50;3.95;;;13.00;99.90;;;;;;4857651;29;235047;-88
2022/08/28 01:06:55;;;;;;;11.70;3.63;;;13.00;99.90;;;;;;4885579;29;20063;-88
2022/08/28 01:09:30;;;;;;;13.45;3.78;;;13.00;99.90;;;;;;4858636;29;205358;-88
2022/08/28 01:12:02;;;;;;;10.82;3.35;;;12.90;99.90;;;;;;4874149;29;20039;-86
2022/08/28 01:14:44;;;;;;;11.27;3.35;;;12.90;99.90;;;;;;4836344;29;216030;-91
2022/08/28 01:17:52;;;;;;;13.88;4.00;;;12.90;99.90;;;;;;4879871;29;20046;-88
2022/08/28 01:20:25;;;;;;;13.60;3.40;;;12.90;99.90;;;;;;4866917;29;273549;-91
2022/08/28 01:23:20;;;;;;;16.30;3.50;;;12.90;99.90;;;;;;4897018;29;32135;-91
2022/08/28 01:25:51;;;;;;;16.88;3.50;;;12.80;99.90;;;;;;4842801;29;242177;-87
2022/08/28 01:28:17;;;;;;;13.68;3.30;;;12.80;99.90;;;;;;4847102;29;185631;-88
2022/08/28 01:30:48;;;;;;;14.63;3.38;;;12.80;99.90;;;;;;4870313;29;20052;-88
2022/08/28 01:33:19;;;;;;;13.93;3.53;;;12.80;99.90;;;;;;4856800;29;258936;-88
2022/08/28 01:35:47;;;;;;;;;;;12.80;99.90;;;;;;4887562;29;20052;-88
2022/08/28 01:38:15;;;;;;;14.55;3.05;;;12.80;99.90;;;;;;4855581;29;269882;-88
2022/08/28 01:40:58;;;;;;;11.82;3.03;;;12.70;99.90;;;;;;4890079;29;20064;-87
2022/08/28 01:43:31;;;;;;;12.30;2.90;;;12.70;99.90;;;;;;4881338;28;178681;-88
2022/08/28 01:46:08;;;;;;;12.70;3.40;;;12.70;99.90;;;;;;4924023;29;20066;-88
2022/08/28 01:48:43;;;;;;;12.48;3.20;;;12.70;99.90;;;;;;4883320;28;199674;-88
2022/08/28 01:51:14;;;;;;;11.60;3.05;;;12.70;99.90;;;;;;4917359;29;20417;-87
2022/08/28 01:53:41;;;;;;;14.18;3.60;;;12.70;99.90;;;;;;4891831;28;190998;-88
2022/08/28 01:56:16;;;;;;;13.00;3.25;;;12.60;99.90;;;;;;4924972;28;20067;-88
2022/08/28 01:58:49;;;;;;;13.50;3.65;;;12.60;99.90;;;;;;4886429;28;213834;-88
2022/08/28 02:01:35;;;;;;;11.10;3.53;;;12.60;99.90;;;;;;4916138;28;20066;-87
2022/08/28 02:04:13;;;;;;;13.27;3.65;;;12.60;99.90;;;;;;4874836;28;268291;-88
2022/08/28 02:06:43;;;;;;;10.93;3.35;;;12.60;99.90;;;;;;4939932;28;20054;-88
2022/08/28 02:09:17;;;;;;;12.85;3.63;;;12.50;99.90;;;;;;4875940;29;232351;-91
2022/08/28 02:11:51;;;;;;;13.90;3.75;;;12.60;99.90;;;;;;4925814;29;20058;-88
2022/08/28 02:14:28;;;;;;;12.32;3.33;;;12.60;99.90;;;;;;4881627;28;140622;-90
2022/08/28 02:16:55;;;;;;;13.75;3.67;;;12.50;99.90;;;;;;4917058;29;20559;-88
2022/08/28 02:19:24;;;;;;;13.43;3.10;;;12.50;99.90;;;;;;4873328;28;192439;-88
2022/08/28 02:21:59;;;;;;;11.00;3.13;;;12.50;99.90;;;;;;4913568;29;20059;-89
2022/08/28 02:24:38;;;;;;;12.65;3.35;;;12.40;99.90;;;;;;4861313;28;204757;-88
2022/08/28 02:27:29;;;;;;;12.68;3.05;;;12.40;99.90;;;;;;4925538;28;20047;-89
2022/08/28 02:29:59;;;;;;;13.60;3.30;;;12.30;99.90;;;;;;4876359;28;233840;-88
2022/08/28 02:32:41;;;;;;;14.68;3.33;;;12.30;99.90;;;;;;4953019;28;20055;-89
2022/08/28 02:35:13;;;;;;;11.32;3.35;;;12.30;99.90;;;;;;4910472;28;159127;-87
2022/08/28 02:37:53;;;;;;;14.45;3.55;;;12.30;99.90;;;;;;4917437;29;20047;-87
2022/08/28 02:40:25;;;;;;;9.05;2.83;;;12.30;99.90;;;;;;4860883;28;289198;-86
2022/08/28 02:43:01;;;;;;;12.90;3.55;;;12.30;99.90;;;;;;4923227;28;186947;-87
2022/08/28 02:45:42;;;;;;;10.65;3.13;;;12.20;99.90;;;;;;4881774;29;216667;-87
2022/08/28 02:48:20;;;;;;;15.18;3.83;;;12.20;99.90;;;;;;4877072;28;237067;-87
2022/08/28 02:50:49;;;;;;;13.70;3.60;;;12.20;99.90;;;;;;4919606;29;20105;-87
2022/08/28 02:53:22;;;;;;;12.77;3.40;;;12.20;99.90;;;;;;4884836;28;172554;-87
2022/08/28 02:55:56;;;;;;;15.57;3.58;;;12.20;99.90;;;;;;4921424;28;20063;-90
2022/08/28 02:58:30;;;;;;;13.65;3.95;;;12.20;99.90;;;;;;4876822;28;245032;-86
2022/08/28 03:01:10;;;;;;;12.32;3.88;;;12.20;99.90;;;;;;4941677;28;20050;-86
2022/08/28 03:06:40;;;;;;;13.02;3.65;;;12.20;99.90;;;;;;4933914;29;20392;-87
2022/08/28 03:09:10;;;;;;;14.32;3.70;;;12.20;99.90;;;;;;4886273;28;203057;-87
2022/08/28 03:11:37;;;;;;;11.30;3.75;;;12.20;99.90;;;;;;4925795;28;20055;-88
2022/08/28 03:14:17;;;;;;;14.75;3.97;;;12.20;99.90;;;;;;4877336;29;312257;-90
2022/08/28 03:16:56;;;;;;;17.10;3.83;;;12.20;99.90;;;;;;4935802;29;20051;-90
2022/08/28 03:19:26;;;;;;;14.73;3.90;;;12.20;99.90;;;;;;4922789;28;239168;-88
2022/08/28 03:21:55;;;;;;;16.55;4.20;;;12.20;99.90;;;;;;4922204;29;20043;-89
2022/08/28 03:24:33;;;;;;;15.63;4.18;;;12.20;99.90;;;;;;4871187;28;248193;-89
2022/08/28 03:27:01;;;;;;;12.48;3.72;;;12.20;99.90;;;;;;4941089;28;20047;-87
2022/08/28 03:29:31;;;;;;;12.65;3.65;;;12.10;99.90;;;;;;4852564;29;238546;-88
2022/08/28 03:32:05;;;;;;;13.15;3.78;;;12.10;99.90;;;;;;4902630;29;20522;-89
2022/08/28 03:34:32;;;;;;;13.32;4.10;;;12.10;99.90;;;;;;4835614;29;194896;-88
2022/08/28 03:37:01;;;;;;;13.18;3.78;;;12.10;99.90;;;;;;4854662;29;20065;-88
2022/08/28 03:39:40;;;;;;;13.75;3.75;;;12.10;99.90;;;;;;4828030;29;191160;-87
2022/08/28 03:42:06;;;;;;;14.30;3.80;;;12.00;99.90;;;;;;4861108;29;20065;-89
2022/08/28 03:44:44;;;;;;;14.15;4.03;;;12.00;99.90;;;;;;4810150;29;253423;-87
2022/08/28 03:47:30;;;;;;;14.82;4.32;;;12.00;99.90;;;;;;4863406;29;20053;-88
2022/08/28 03:50:15;;;;;;;10.70;3.92;;;12.00;99.90;;;;;;4809699;29;179651;-88
2022/08/28 03:52:43;;;;;;;13.32;3.90;;;11.90;99.90;;;;;;4871613;29;20045;-87
2022/08/28 03:55:21;;;;;;;11.27;3.58;;;11.90;99.90;;;;;;4803009;29;231785;-87
2022/08/28 03:57:51;;;;;;;13.82;4.10;;;11.90;99.90;;;;;;4879855;29;20064;-87
2022/08/28 04:00:45;;;;;;;15.27;4.10;;;11.80;99.90;;;;;;4827940;29;209981;-87
2022/08/28 04:03:14;;;;;;;12.32;3.90;;;11.90;99.90;;;;;;4861810;29;208533;-88
2022/08/28 04:05:50;;;;;;;12.50;3.65;;;11.80;99.90;;;;;;4904107;28;20051;-88
2022/08/28 04:08:27;;;;;;;13.80;3.65;;;11.80;99.90;;;;;;4885122;28;227597;-87
2022/08/28 04:11:10;;;;;;;13.02;3.67;;;11.80;99.90;;;;;;4883687;29;20060;-87
2022/08/28 04:14:01;;;;;;;15.43;3.53;;;11.80;99.90;;;;;;4842475;29;164739;-87
2022/08/28 04:16:42;;;;;;;15.55;4.10;;;11.80;99.90;;;;;;4868385;29;20055;-87
2022/08/28 04:19:20;;;;;;;11.25;3.50;;;11.80;99.90;;;;;;4834798;29;186642;-88
2022/08/28 04:21:51;;;;;;;14.23;4.13;;;11.80;99.90;;;;;;4877735;29;20032;-89
2022/08/28 04:25:01;;;;;;;12.40;3.40;;;11.70;99.90;;;;;;4849129;29;256033;-88
2022/08/28 04:27:31;;;;;;;12.18;4.05;;;11.70;99.90;;;;;;4899500;29;20036;-87
2022/08/28 04:30:00;;;;;;;11.05;3.35;;;11.70;99.90;;;;;;4847690;29;183326;-87
2022/08/28 04:32:50;;;;;;;10.90;3.55;;;11.70;99.90;;;;;;4908443;29;20074;-88
2022/08/28 04:35:28;;;;;;;;;;;11.70;99.90;;;;;;4811611;29;983980;-88
2022/08/28 04:37:59;;;;;;;10.27;3.38;;;11.70;99.90;;;;;;4860863;29;211514;-90
2022/08/28 04:40:37;;;;;;;12.18;3.60;;;11.60;99.90;;;;;;4879338;29;20544;-88
2022/08/28 04:43:03;;;;;;;11.70;3.60;;;11.60;99.90;;;;;;4876477;28;651758;-87
2022/08/28 04:45:44;;;;;;;15.13;3.33;;;11.60;99.90;;;;;;4914208;29;20043;-88
2022/08/28 04:48:32;;;;;;;11.77;3.70;;;11.60;99.90;;;;;;4919625;28;214252;-88
2022/08/28 04:51:36;;;;;;;11.07;3.80;;;11.60;99.90;;;;;;4936442;29;20074;-92
2022/08/28 04:54:21;;;;;;;11.50;3.60;;;11.60;99.90;;;;;;4842585;29;270405;-88
2022/08/28 04:56:54;;;;;;;12.32;4.07;;;11.50;99.90;;;;;;4877919;29;20068;-90
2022/08/28 04:59:28;;;;;;;13.05;3.90;;;11.50;99.90;;;;;;4820558;29;676341;-88
2022/08/28 05:02:14;;;;;;;14.27;3.78;;;11.50;99.90;;;;;;4885502;29;20048;-87
2022/08/28 05:04:44;;;;;;;11.52;3.33;;;11.50;99.90;;;;;;4806421;29;215793;-88
2022/08/28 05:07:15;;;;;;;10.30;3.65;;;11.50;99.90;;;;;;4876795;29;20056;-89
2022/08/28 05:09:47;;;;;;;14.77;3.58;;;11.50;99.90;;;;;;4848385;29;111567;-88
2022/08/28 05:12:18;;;;;;;10.85;3.42;;;11.50;99.90;;;;;;4880477;29;20473;-88
2022/08/28 05:14:59;;;;;;;14.60;3.50;;;11.60;99.90;;;;;;4800622;29;204793;-89
2022/08/28 05:17:45;;;;;;;10.48;3.55;;;11.60;99.90;;;;;;4869387;29;20430;-87
2022/08/28 05:20:28;;;;;;;12.77;3.60;;;11.60;99.90;;;;;;4849803;29;236551;-87
2022/08/28 05:23:12;;;;;;;12.25;3.75;;;11.70;99.90;;;;;;4872854;29;104236;-92
2022/08/28 05:29:10;;;;;;;13.48;3.80;;;11.90;99.90;;;;;;4838533;29;229554;-89
2022/08/28 05:31:42;;;;;;;12.73;3.92;;;12.10;99.90;;;;;;4933797;28;20050;-88
2022/08/28 05:34:40;;;;;;;14.23;3.77;;;12.10;99.90;;;;;;4856154;28;854045;-89
2022/08/28 05:37:14;;;;;;;9.90;3.30;;;12.20;99.90;;;;;;4941682;28;20142;-87
2022/08/28 05:40:13;;;;;;;10.38;3.58;;;12.20;99.90;;;;;;4898099;28;190913;-88
2022/08/28 05:42:57;;;;;;;10.85;3.47;;;12.30;99.90;;;;;;4956307;28;20043;-87
2022/08/28 05:45:28;;;;;;;11.20;3.38;;;12.30;99.90;;;;;;4867107;29;280709;-88
2022/08/28 05:48:00;;;;;;;12.93;3.10;;;12.40;99.90;;;;;;4916265;28;296692;-88
2022/08/28 05:50:31;;;;;;;13.40;3.53;;;12.50;99.90;;;;;;4922159;29;20051;-88
2022/08/28 05:53:05;;;;;;;13.70;3.45;;;12.50;99.90;;;;;;4874517;28;233199;-88
2022/08/28 05:55:41;;;;;;;12.80;3.15;;;12.60;99.90;;;;;;4917705;28;20077;-86
2022/08/28 05:58:31;;;;;;;13.43;3.30;;;12.60;99.90;;;;;;4878589;28;225252;-87
2022/08/28 06:01:16;;;;;;;12.00;3.63;;;12.70;99.90;;;;;;4927758;28;20039;-89
2022/08/28 06:03:56;;;;;;;10.43;3.15;;;12.80;99.90;;;;;;4900703;28;352038;-93
2022/08/28 06:06:32;;;;;;;14.20;3.55;;;12.80;99.90;;;;;;4940173;28;20062;-88
2022/08/28 06:09:14;;;;;;;10.73;3.25;;;12.90;99.90;;;;;;4884177;28;309342;-88
2022/08/28 06:11:41;;;;;;;;;;;13.00;99.90;;;;;;4947393;28;20059;-89
2022/08/28 06:14:24;;;;;;;10.55;3.05;;;13.10;99.90;;;;;;4877014;28;183759;-89
2022/08/28 06:17:02;;;;;;;13.82;3.33;;;13.30;99.90;;;;;;4923291;29;20063;-88
2022/08/28 06:19:56;;;;;;;15.95;3.20;;;13.50;99.90;;;;;;4876544;29;210514;-88
2022/08/28 06:22:30;;;;;;;13.13;2.80;;;13.70;99.90;;;;;;4968112;28;20038;-88
2022/08/28 06:25:00;;;;;;;11.52;2.53;;;14.00;99.90;;;;;;4878214;28;249897;-88
2022/08/28 06:27:29;;;;;;;13.38;2.63;;;14.20;99.90;;;;;;4951024;29;20047;-89
2022/08/28 06:30:02;;;;;;;13.35;2.75;;;14.40;99.90;;;;;;4912032;28;211453;-89
2022/08/28 06:32:35;;;;;;;13.40;2.55;;;14.80;99.90;;;;;;4954722;28;20074;-89
2022/08/28 06:35:06;;;;;;;13.50;2.20;;;14.90;99.90;;;;;;4868359;28;900395;-89
2022/08/28 06:37:54;;;;;;;10.43;2.40;;;15.60;99.90;;;;;;4947572;29;20051;-87
2022/08/28 06:40:46;;;;;;;13.68;2.50;;;16.00;99.90;;;;;;4869695;29;197053;-88
2022/08/28 06:43:26;;;;;;;;;;;16.40;99.90;;;;;;4951128;23;237512;-67
2022/08/28 06:45:53;;;;;;;11.30;2.20;;;16.70;99.90;;;;;;4985289;28;19940;-65
2022/08/28 06:48:22;;;;;;;11.13;2.30;;;17.00;99.90;;;;;;4950261;28;206436;-67
2022/08/28 06:50:53;;;;;;;11.68;2.38;;;17.40;99.90;;;;;;4986528;28;20047;-68
2022/08/28 06:53:22;;;;;;;9.73;2.00;;;17.70;99.90;;;;;;4954041;28;220129;-68
2022/08/28 06:56:07;;;;;;;11.52;2.10;;;18.00;99.90;;;;;;4987804;28;20046;-66
2022/08/28 06:58:39;;;;;;;9.98;1.90;;;18.30;99.90;;;;;;4955609;28;202614;-67
2022/08/28 07:01:09;;;;;;;11.25;2.45;;;18.60;99.90;;;;;;4993100;28;20054;-67
2022/08/28 07:03:36;;;;;;;14.10;2.20;;;18.80;99.90;;;;;;4936506;28;215415;-67
2022/08/28 07:06:04;;;;;;;10.15;2.13;;;19.00;99.90;;;;;;4969212;28;20047;-67
2022/08/28 07:08:33;;;;;;;14.20;2.33;;;19.40;99.90;;;;;;4937410;28;215729;-68
2022/08/28 07:11:12;;;;;;;13.48;2.28;;;19.50;99.90;;;;;;4972040;28;20442;-66
2022/08/28 07:13:40;;;;;;;10.95;2.10;;;19.70;99.90;;;;;;4948404;28;244441;-68
2022/08/28 07:16:06;;;;;;;11.73;2.10;;;19.90;99.90;;;;;;4975140;28;20051;-68
2022/08/28 07:18:33;;;;;;;12.90;2.13;;;20.20;99.90;;;;;;4948448;28;217125;-65
2022/08/28 07:20:59;;;;;;;11.70;2.30;;;20.40;99.90;;;;;;4985662;28;20050;-69
2022/08/28 07:23:27;;;;;;;9.15;1.90;;;20.60;99.90;;;;;;4934689;28;210654;-69
2022/08/28 07:25:54;;;;;;;10.93;1.90;;;20.70;99.90;;;;;;4957026;28;20054;-68
2022/08/28 07:28:20;;;;;;;10.82;2.10;;;20.80;99.90;;;;;;4936431;28;212350;-69
2022/08/28 07:30:56;;;;;;;9.88;1.80;;;20.90;99.90;;;;;;4988187;28;20058;-69
2022/08/28 07:33:23;;;;;;;13.18;2.13;;;21.00;98.60;;;;;;4943207;28;209139;-70
2022/08/28 07:35:49;;;;;;;12.98;1.92;;;21.20;99.90;;;;;;5002864;28;20497;-69
2022/08/28 07:38:15;;;;;;;10.68;2.05;;;21.20;99.10;;;;;;4937202;28;211737;-70
2022/08/28 07:40:41;;;;;;;9.35;2.03;;;21.40;99.40;;;;;;4992207;28;20061;-70
2022/08/28 07:46:01;;;;;;;10.70;2.00;;;20.90;98.30;;;;;;4997824;28;20054;-67
2022/08/28 07:48:27;;;;;;;11.68;1.95;;;20.70;97.70;;;;;;4966774;28;210658;-68
2022/08/28 07:50:53;;;;;;;9.00;1.63;;;20.40;98.10;;;;;;4984836;28;20061;-68
2022/08/28 07:53:19;;;;;;;9.65;1.67;;;20.30;97.80;;;;;;4941212;28;217451;-68
2022/08/28 07:55:49;;;;;;;9.85;2.00;;;20.30;97.00;;;;;;4974260;28;20046;-69
2022/08/28 07:58:15;;;;;;;9.45;2.03;;;20.50;97.10;;;;;;4926596;28;209346;-69
2022/08/28 08:00:41;;;;;;;11.38;1.80;;;20.90;96.90;;;;;;4989831;28;20505;-69
2022/08/28 08:03:08;;;;;;;8.27;1.55;;;21.00;96.20;;;;;;4943381;28;212807;-69
2022/08/28 08:05:34;;;;;;;9.07;1.90;;;21.30;95.80;;;;;;4977709;28;20164;-69
2022/08/28 08:08:00;;;;;;;8.25;1.73;;;21.50;95.70;;;;;;4952410;28;220318;-70
2022/08/28 08:10:26;;;;;;;10.20;1.85;;;21.70;95.80;;;;;;4972244;28;20066;-68
2022/08/28 08:12:52;;;;;;;10.63;2.05;;;21.90;94.90;;;;;;4959980;28;211800;-68
2022/08/28 08:15:18;;;;;;;10.10;2.05;;;21.90;94.60;;;;;;4986471;28;206909;-67
2022/08/28 08:17:44;;;;;;;10.40;2.03;;;21.40;94.60;;;;;;4988039;28;20042;-68
2022/08/28 08:20:10;;;;;;;11.77;1.88;;;21.40;95.00;;;;;;4929262;28;205786;-68
2022/08/28 08:22:37;;;;;;;11.45;2.45;;;21.50;94.80;;;;;;4984745;28;20054;-68
2022/08/28 08:25:04;;;;;;;11.63;2.10;;;21.50;94.30;;;;;;4914752;28;205685;-68
2022/08/28 08:27:34;;;;;;;9.35;1.90;;;21.70;94.60;;;;;;4986530;28;20065;-69
2022/08/28 08:30:02;;;;;;;11.45;2.28;;;22.00;94.50;;;;;;4924788;28;229847;-68
2022/08/28 08:32:28;;;;;;;12.63;1.90;;;22.60;94.40;;;;;;4988437;28;20059;-69
2022/08/28 08:34:54;;;;;;;8.30;1.88;;;22.90;93.50;;;;;;4951879;28;212720;-69
2022/08/28 08:37:21;;;;;;;9.88;2.03;;;22.90;93.50;;;;;;4974016;28;20057;-69
2022/08/28 08:39:47;;;;;;;11.32;2.00;;;22.90;93.50;;;;;;4938918;28;225880;-69
2022/08/28 08:42:26;;;;;;;10.45;2.20;;;22.50;93.10;;;;;;4985960;28;20058;-69
2022/08/28 08:44:55;;;;;;;10.18;2.10;;;22.60;92.20;;;;;;4939234;28;212780;-68
2022/08/28 08:47:32;;;;;;;9.40;2.00;;;22.30;92.90;;;;;;4990832;28;21900;-69
2022/08/28 08:50:05;;;;;;;9.90;1.95;;;22.00;92.60;;;;;;4952926;28;239383;-69
2022/08/28 08:53:15;;;;;;;9.35;2.03;;;21.60;93.00;;;;;;4987840;28;20057;-69
2022/08/28 08:55:52;;;;;;;10.15;1.90;;;21.60;92.90;;;;;;4890612;29;205903;-68
2022/08/28 08:58:31;;;;;;;9.30;1.83;;;21.30;91.90;;;;;;4896885;28;204437;-69
2022/08/28 09:01:40;;;;;;;11.75;2.08;;;21.60;92.20;;;;;;4971469;28;21077;-69
2022/08/28 09:04:46;;;;;;;10.23;2.05;;;22.10;92.30;;;;;;4853298;29;206565;-70
2022/08/28 09:07:18;;;;;;;10.00;1.80;;;22.50;91.50;;;;;;4929561;29;20118;-68
2022/08/28 09:09:49;;;;;;;10.05;2.00;;;22.40;91.60;;;;;;4874162;29;204469;-69
2022/08/28 09:12:17;;;;;;;14.05;2.20;;;22.60;91.80;;;;;;4927935;29;20047;-69
2022/08/28 09:15:07;;;;;;;9.15;1.95;;;22.00;91.60;;;;;;4882518;29;211469;-68
2022/08/28 09:17:45;;;;;;;9.50;2.20;;;21.60;91.70;;;;;;4927733;29;20060;-70
2022/08/28 09:20:14;;;;;;;10.27;1.90;;;21.50;91.30;;;;;;4861661;29;194643;-69
2022/08/28 09:22:43;;;;;;;11.82;1.90;;;22.20;91.60;;;;;;4928307;29;20056;-68
2022/08/28 09:25:11;;;;;;;9.48;1.80;;;23.00;91.70;;;;;;4842907;29;222779;-69
2022/08/28 09:27:51;;;;;;;10.75;2.10;;;23.80;90.40;;;;;;4913807;29;20059;-69
2022/08/28 09:30:29;;;;;;;9.77;1.97;;;24.00;89.90;;;;;;4886899;29;207083;-69
2022/08/28 09:32:59;;;;;;;11.02;1.90;;;23.70;88.10;;;;;;4905554;28;207691;-69
2022/08/28 09:35:34;;;;;;;10.18;2.00;;;23.00;89.30;;;;;;4948340;28;20051;-69
2022/08/28 09:38:20;;;;;;;13.25;2.30;;;22.80;88.70;;;;;;4901349;28;208407;-69
2022/08/28 09:43:34;;;;;;;9.45;2.00;;;22.60;89.40;;;;;;4945656;28;204423;-71
2022/08/28 09:46:22;;;;;;;9.75;2.13;;;22.30;88.70;;;;;;4999700;28;20069;-69
2022/08/28 09:48:51;;;;;;;7.93;1.90;;;22.10;88.80;;;;;;4942933;28;210507;-70
2022/08/28 09:51:20;;;;;;;9.20;1.80;;;22.20;89.90;;;;;;4959684;28;20042;-71
2022/08/28 09:53:55;;;;;;;13.35;2.25;;;22.60;90.20;;;;;;4941718;28;206582;-70
2022/08/28 09:56:29;;;;;;;9.63;2.20;;;22.70;88.20;;;;;;4980707;28;20058;-71
2022/08/28 09:59:08;;;;;;;11.05;2.35;;;22.50;88.50;;;;;;4942620;28;217281;-71
2022/08/28 10:02:16;;;;;;;8.95;2.08;;;22.40;88.10;;;;;;4983716;28;20500;-71
2022/08/28 10:05:08;;;;;;;7.63;1.63;;;22.40;87.30;;;;;;4903253;28;207364;-71
2022/08/28 10:07:48;;;;;;;10.35;1.90;;;22.20;88.70;;;;;;4964744;28;20054;-71
2022/08/28 10:10:26;;;;;;;9.57;2.08;;;21.90;88.30;;;;;;4898400;28;169696;-71
2022/08/28 10:13:07;;;;;;;10.73;2.00;;;21.70;88.60;;;;;;4934811;28;49697;-70
2022/08/28 10:15:42;;;;;;;9.25;2.50;;;22.10;90.20;;;;;;4924942;28;210481;-71
2022/08/28 10:18:17;;;;;;;7.50;1.60;;;23.10;88.70;;;;;;4912041;28;212573;-71
2022/08/28 10:21:03;;;;;;;8.75;2.00;;;23.70;89.30;;;;;;4946279;28;20042;-71
2022/08/28 10:23:57;;;;;;;9.05;1.95;;;24.60;85.40;;;;;;4921927;28;207965;-72
2022/08/28 10:26:32;;;;;;;8.63;2.08;;;24.50;82.90;;;;;;4945409;28;20787;-71
2022/08/28 10:29:31;;;;;;;7.85;1.90;;;24.20;84.10;;;;;;4917794;28;208111;-70
2022/08/28 10:32:15;;;;;;;7.63;1.95;;;23.50;82.60;;;;;;4956521;28;20054;-71
2022/08/28 10:35:12;;;;;;;9.02;2.10;;;22.70;84.70;;;;;;4905847;28;153797;-71
2022/08/28 10:37:57;;;;;;;11.88;2.45;;;22.20;84.60;;;;;;4943144;28;20058;-71
2022/08/28 10:40:27;;;;;;;9.77;2.33;;;22.30;86.80;;;;;;4897757;28;206396;-71
2022/08/28 10:43:01;;;;;;;8.90;2.10;;;23.10;86.70;;;;;;4893545;28;206857;-69
2022/08/28 10:45:29;;;;;;;10.65;2.00;;;24.10;86.70;;;;;;4940023;28;20087;-71
2022/08/28 10:48:05;;;;;;;8.57;2.00;;;24.50;84.40;;;;;;4895965;28;215042;-71
2022/08/28 10:50:42;;;;;;;9.43;2.30;;;24.40;82.90;;;;;;4976309;28;20713;-71
2022/08/28 10:53:14;;;;;;;12.60;2.20;;;23.80;82.00;;;;;;4898118;28;209026;-71
2022/08/28 10:56:01;;;;;;;8.23;2.10;;;23.30;81.70;;;;;;4954479;28;20050;-71
2022/08/28 10:58:30;;;;;;;8.57;1.90;;;23.40;84.40;;;;;;4928162;28;109882;-71
2022/08/28 11:01:04;;;;;;;10.60;2.08;;;23.60;83.10;;;;;;4961720;28;20055;-72
2022/08/28 11:03:48;;;;;;;8.65;2.00;;;24.00;82.50;;;;;;4921102;28;206325;-70
2022/08/28 11:06:21;;;;;;;9.88;1.90;;;24.90;82.90;;;;;;4958457;28;20066;-71
2022/08/28 11:08:56;;;;;;;8.90;2.10;;;25.40;80.00;;;;;;4940666;28;206530;-72
2022/08/28 11:11:42;;;;;;;9.23;1.90;;;25.30;80.00;;;;;;4972537;28;20076;-71
2022/08/28 11:14:21;;;;;;;7.78;1.75;;;26.10;78.50;;;;;;4928629;28;207589;-71
2022/08/28 11:16:48;;;;;;;8.38;1.90;;;26.00;77.00;;;;;;4984901;28;20093;-71
2022/08/28 11:19:51;;;;;;;8.65;2.10;;;25.30;76.00;;;;;;4984602;28;20051;-71
2022/08/28 11:22:40;;;;;;;7.82;1.90;;;24.60;77.30;;;;;;4865987;29;225293;-71
2022/08/28 11:25:15;;;;;;;10.18;2.30;;;24.10;78.50;;;;;;4920971;29;20047;-71
2022/08/28 11:28:37;;;;;;;9.88;1.92;;;24.30;79.70;;;;;;4924663;28;129744;-70
2022/08/28 11:31:03;;;;;;;9.02;2.05;;;24.80;75.30;;;;;;4865587;29;152138;-70
2022/08/28 11:33:47;;;;;;;8.77;1.83;;;24.30;77.30;;;;;;4905593;29;20055;-72
2022/08/28 11:36:19;;;;;;;9.60;1.95;;;24.10;77.40;;;;;;4902776;29;20060;-71
2022/08/28 11:38:45;;;;;;;8.18;1.83;;;24.70;77.90;;;;;;4906445;29;20059;-71
2022/08/28 11:41:19;;;;;;;9.38;2.22;;;25.30;76.90;;;;;;4907874;29;20060;-71
2022/08/28 11:44:12;;;;;;;9.73;2.00;;;25.60;73.40;;;;;;4846426;29;205961;-71
2022/08/28 11:46:40;;;;;;;9.85;1.92;;;25.60;73.10;;;;;;4894318;29;20060;-71
2022/08/28 11:49:25;;;;;;;8.43;1.95;;;25.70;74.60;;;;;;4845497;29;216113;-71
2022/08/28 11:52:00;;;;;;;9.35;1.92;;;26.40;71.40;;;;;;4894986;29;20052;-71
2022/08/28 11:54:56;;;;;;;6.47;1.58;;;26.30;70.00;;;;;;4833264;29;207888;-71
2022/08/28 11:58:00;;;;;;;7.75;1.75;;;25.20;70.10;;;;;;4872608;29;20059;-70
2022/08/28 12:00:38;;;;;;;10.88;2.15;;;25.50;70.50;;;;;;4831416;29;209149;-70
2022/08/28 12:03:22;;;;;;;8.80;1.90;;;26.20;70.00;;;;;;4840698;29;172223;-72
2022/08/28 12:05:55;;;;;;;9.75;2.03;;;25.80;69.50;;;;;;4945700;28;20423;-71
2022/08/28 12:08:52;;;;;;;9.73;2.00;;;25.90;71.10;;;;;;4940373;28;209194;-71
2022/08/28 12:11:40;;;;;;;9.43;1.83;;;26.20;69.00;;;;;;4993865;28;20046;-71
2022/08/28 12:14:08;;;;;;;13.73;2.28;;;26.40;69.80;;;;;;4949339;28;213628;-71
2022/08/28 12:17:15;;;;;;;9.20;2.00;;;26.90;70.20;;;;;;4990503;28;20077;-72
2022/08/28 12:19:50;;;;;;;7.60;1.77;;;27.20;66.90;;;;;;4879070;29;154061;-71
2022/08/28 12:22:21;;;;;;;7.72;1.90;;;26.70;67.40;;;;;;4942770;28;20452;-71
2022/08/28 12:25:02;;;;;;;9.77;1.80;;;25.80;68.40;;;;;;4879220;28;206426;-71
2022/08/28 12:27:30;;;;;;;9.38;2.10;;;25.40;68.30;;;;;;4930409;29;20054;-72
2022/08/28 12:30:00;;;;;;;8.60;1.75;;;26.00;69.60;;;;;;4876836;28;209484;-72
2022/08/28 12:32:29;;;;;;;7.35;1.85;;;26.00;67.30;;;;;;4942936;28;20064;-71
2022/08/28 12:34:58;;;;;;;7.78;1.75;;;25.90;68.20;;;;;;4866819;28;209410;-71
2022/08/28 12:37:42;;;;;;;8.05;1.80;;;26.00;67.00;;;;;;4925194;29;20052;-71
2022/08/28 12:40:19;;;;;;;9.90;1.77;;;26.40;65.10;;;;;;4880954;29;207549;-71
2022/08/28 12:42:47;;;;;;;8.27;1.90;;;25.60;66.50;;;;;;4910118;29;176700;-72
2022/08/28 12:45:20;;;;;;;9.30;1.70;;;25.50;67.30;;;;;;4891958;29;150677;-72
2022/08/28 12:47:48;;;;;;;7.63;1.90;;;26.10;68.50;;;;;;4928107;28;209564;-72
2022/08/28 12:50:20;;;;;;;9.43;1.83;;;26.20;66.20;;;;;;4914230;28;158312;-72
2022/08/28 12:52:52;;;;;;;7.70;1.70;;;25.70;67.10;;;;;;4960423;28;208669;-72
2022/08/28 12:55:19;;;;;;;7.75;1.85;;;26.20;67.40;;;;;;4947177;28;207253;-72
2022/08/28 12:57:47;;;;;;;9.95;2.08;;;26.50;66.60;;;;;;4980165;28;20054;-73
2022/08/28 13:00:34;;;;;;;10.75;2.00;;;26.00;66.20;;;;;;4979197;28;20074;-71
2022/08/28 13:03:01;;;;;;;9.50;1.92;;;25.50;67.10;;;;;;4978005;28;20069;-71
2022/08/28 13:05:32;;;;;;;8.23;1.50;;;25.80;68.50;;;;;;4980330;28;20058;-71
2022/08/28 13:08:03;;;;;;;6.78;1.60;;;26.00;67.30;;;;;;4993564;28;20050;-71
2022/08/28 13:10:35;;;;;;;;;;;26.20;66.80;;;;;;4979658;28;20057;-71
2022/08/28 13:13:09;;;;;;;9.65;1.80;;;26.40;66.60;;;;;;4978807;28;19926;-72
2022/08/28 13:15:46;;;;;;;7.80;1.60;;;26.90;66.70;;;;;;4980104;28;20058;-72
2022/08/28 13:18:46;;;;;;;7.57;1.58;;;27.30;67.30;;;;;;4984672;28;20070;-72
2022/08/28 13:21:14;;;;;;;8.98;1.60;;;26.90;65.90;;;;;;4981311;28;20050;-72
2022/08/28 13:23:41;;;;;;;8.02;1.55;;;26.50;66.70;;;;;;4979877;28;20058;-71
2022/08/28 13:26:07;;;;;;;8.57;1.50;;;26.50;66.90;;;;;;4981695;28;20061;-71
2022/08/28 13:28:41;;;;;;;6.78;1.63;;;26.10;67.40;;;;;;4941679;28;214585;-71
2022/08/28 13:31:28;;;;;;;7.85;1.58;;;25.50;67.60;;;;;;4980072;28;20711;-72
2022/08/28 13:34:19;;;;;;;9.50;1.40;;;25.30;68.20;;;;;;4936627;28;206002;-72
2022/08/28 13:36:48;;;;;;;7.88;1.52;;;24.90;68.30;;;;;;4969070;28;20774;-73
2022/08/28 13:39:17;;;;;;;10.05;1.40;;;24.40;69.30;;;;;;4924975;28;213129;-72